Time;durP1;ratioP1;P1;durP2;ratioP2;P2;SDS_P1;SDS_P2;PMS_P1;PMS_P2;Temp;Humidity;BMP_temperature;BMP_pressure;BME280_temperature;BME280_humidity;BME280_pressure;Samples;Min_cycle;Max_cycle;Signal;HPM_P1;HPM_P2
2022/03/20 00:09:00;;;;;;;4.57;2.97;;;;;;;;;;21020968;28;20209;-66
2022/03/20 00:19:02;;;;;;;3.83;2.67;;;;;;;;;;21004542;28;20659;-66
2022/03/20 00:29:05;;;;;;;4.33;2.77;;;8.30;99.90;;;;;;21036974;28;20267;-66
2022/03/20 00:39:08;;;;;;;3.90;2.63;;;;;;;;;;21019683;28;20242;-66
2022/03/20 00:49:10;;;;;;;4.60;2.73;;;;;;;;;;21009708;28;20695;-66
2022/03/20 00:59:12;;;;;;;5.00;3.27;;;;;;;;;;21050983;28;20228;-65
2022/03/20 01:09:14;;;;;;;3.70;2.17;;;;;;;;;;21033646;28;20208;-65
2022/03/20 01:19:15;;;;;;;4.73;3.03;;;;;;;;;;21033087;28;20667;-65
2022/03/20 01:29:18;;;;;;;4.43;2.97;;;;;;;;;;21048650;28;20891;-65
2022/03/20 01:39:20;;;;;;;4.57;2.37;;;7.60;99.90;;;;;;21047837;28;20212;-65
2022/03/20 01:49:22;;;;;;;6.17;2.53;;;;;;;;;;21014577;28;20277;-65
2022/03/20 01:59:24;;;;;;;3.60;2.37;;;;;;;;;;21063132;28;20219;-64
2022/03/20 02:09:25;;;;;;;5.20;3.03;;;;;;;;;;21029097;28;20212;-65
2022/03/20 02:19:27;;;;;;;4.43;2.63;;;7.10;99.90;;;;;;21012187;28;20208;-65
2022/03/20 02:29:29;;;;;;;3.40;2.10;;;;;;;;;;21060301;28;20281;-65
2022/03/20 02:39:32;;;;;;;4.00;2.70;;;6.90;99.90;;;;;;21010352;28;20209;-65
2022/03/20 02:49:36;;;;;;;4.07;2.77;;;6.50;99.90;;;;;;21009828;28;20216;-65
2022/03/20 02:59:38;;;;;;;4.17;2.57;;;;;;;;;;21041660;28;20635;-65
2022/03/20 03:20:01;;;;;;;4.17;2.93;;;6.70;99.90;;;;;;21040609;28;20196;-64
2022/03/20 03:30:04;;;;;;;4.33;2.93;;;6.80;99.90;;;;;;21023171;28;20284;-65
2022/03/20 03:40:07;;;;;;;4.13;2.50;;;6.40;99.90;;;;;;21054709;28;20643;-65
2022/03/20 03:50:10;;;;;;;3.80;2.73;;;6.50;99.90;;;;;;21021930;28;20216;-65
2022/03/20 04:00:13;;;;;;;3.23;2.37;;;6.40;99.90;;;;;;21037313;28;20228;-65
2022/03/20 04:10:21;;;;;;;4.37;2.37;;;;;;;;;;21038784;28;20219;-65
2022/03/20 04:20:23;;;;;;;3.43;2.50;;;;;;;;;;21021434;28;20208;-65
2022/03/20 04:30:26;;;;;;;3.40;2.23;;;;;;;;;;21037161;28;20694;-65
2022/03/20 04:40:28;;;;;;;4.90;2.50;;;;;;;;;;21036539;28;20200;-65
2022/03/20 05:00:50;;;;;;;4.07;2.70;;;;;;;;;;21037343;28;20274;-65
2022/03/20 05:21:12;;;;;;;4.80;2.80;;;;;;;;;;21069305;28;20212;-65
2022/03/20 05:31:14;;;;;;;3.77;2.40;;;;;;;;;;21031668;28;20220;-65
2022/03/20 05:51:37;;;;;;;3.90;2.33;;;;;;;;;;21033111;28;20642;-65
2022/03/20 06:01:39;;;;;;;5.63;2.97;;;;;;;;;;21030941;28;20220;-65
2022/03/20 06:11:42;;;;;;;4.87;2.67;;;;;;;;;;21011714;28;20837;-65
2022/03/20 06:21:44;;;;;;;7.27;3.80;;;4.20;99.90;;;;;;21044560;28;20556;-65
2022/03/20 06:31:49;;;;;;;5.47;3.23;;;;;;;;;;21016875;28;20219;-65
2022/03/20 06:41:51;;;;;;;4.93;3.40;;;;;;;;;;21024840;28;20224;-66
2022/03/20 06:51:53;;;;;;;4.90;3.33;;;;;;;;;;21039597;28;20208;-66
2022/03/20 07:01:55;;;;;;;6.40;3.63;;;;;;;;;;21023053;28;20277;-64
2022/03/20 07:11:57;;;;;;;5.17;3.23;;;;;;;;;;21006033;28;20261;-65
2022/03/20 07:21:59;;;;;;;4.40;2.53;;;;;;;;;;21003904;28;20208;-65
2022/03/20 07:32:06;;;;;;;3.20;2.27;;;7.20;99.90;;;;;;20965030;28;20572;-65
2022/03/20 07:42:08;;;;;;;6.40;3.63;;;;;;;;;;21019743;28;20212;-65
2022/03/20 07:52:16;;;;;;;4.60;2.93;;;7.20;99.90;;;;;;20983806;28;20213;-65
2022/03/20 08:02:18;;;;;;;5.07;3.03;;;;;;;;;;21047788;28;20768;-65
2022/03/20 08:12:22;;;;;;;7.87;2.67;;;;;;;;;;21013926;28;20273;-66
2022/03/20 08:22:27;;;;;;;5.77;3.03;;;;;;;;;;20909054;22;20592;-69
2022/03/20 08:32:31;;;;;;;4.93;3.07;;;;;;;;;;20809474;28;20264;-71
2022/03/20 08:42:33;;;;;;;4.60;2.97;;;;;;;;;;20801183;28;20271;-72
2022/03/20 08:52:35;;;;;;;6.80;3.33;;;;;;;;;;20826769;28;20222;-71
2022/03/20 09:02:37;;;;;;;5.20;2.90;;;;;;;;;;20841132;28;20214;-73
2022/03/20 09:12:39;;;;;;;5.00;2.97;;;;;;;;;;20864905;28;20275;-73
2022/03/20 09:22:41;;;;;;;5.40;3.50;;;;;;;;;;20878038;28;20280;-69
2022/03/20 09:32:42;;;;;;;6.90;3.77;;;9.10;99.90;;;;;;20831658;28;20268;-70
2022/03/20 09:42:44;;;;;;;6.17;4.37;;;;;;;;;;20857396;28;20210;-70
2022/03/20 09:52:46;;;;;;;5.57;3.23;;;;;;;;;;20897529;28;20583;-69
2022/03/20 10:02:47;;;;;;;4.87;2.73;;;7.80;99.90;;;;;;20902334;28;20219;-70
2022/03/20 10:12:53;;;;;;;4.80;3.07;;;11.70;99.90;;;;;;20912508;28;20222;-72
2022/03/20 10:22:55;;;;;;;2.60;1.57;;;;;;;;;;20911508;28;20221;-70
2022/03/20 10:32:57;;;;;;;7.67;3.03;;;;;;;;;;20909442;28;20234;-70
2022/03/20 10:43:08;;;;;;;8.43;4.37;;;9.70;99.90;;;;;;20909520;28;20565;-70
2022/03/20 10:53:10;;;;;;;7.67;3.20;;;;;;;;;;20905142;28;20632;-69
2022/03/20 11:03:15;;;;;;;5.47;4.23;;;10.10;99.90;;;;;;20824067;28;20669;-70
2022/03/20 11:13:18;;;;;;;5.37;3.37;;;;;;;;;;20808974;28;20242;-71
2022/03/20 11:23:24;;;;;;;5.33;3.53;;;10.90;99.90;;;;;;20824539;28;20749;-70
2022/03/20 11:33:26;;;;;;;6.47;4.17;;;11.90;99.90;;;;;;20819001;28;20222;-71
2022/03/20 11:43:29;;;;;;;6.03;3.83;;;;;;;;;;20820730;28;20222;-71
2022/03/20 11:53:33;;;;;;;6.37;4.07;;;;;;;;;;20820412;28;20218;-71
2022/03/20 12:03:44;;;;;;;5.77;3.43;;;;;;;;;;20821572;28;20728;-71
2022/03/20 12:13:46;;;;;;;6.33;4.10;;;;;;;;;;20821419;28;20240;-71
2022/03/20 12:23:47;;;;;;;6.00;3.90;;;;;;;;;;20816005;28;20226;-72
2022/03/20 12:34:09;;;;;;;4.47;2.83;;;;;;;;;;20802844;28;20215;-71
2022/03/20 12:44:14;;;;;;;3.03;2.40;;;14.00;99.90;;;;;;20809196;28;20219;-71
2022/03/20 12:54:16;;;;;;;2.30;1.60;;;;;;;;;;20834144;28;20276;-72
2022/03/20 13:04:19;;;;;;;4.20;2.73;;;14.70;99.90;;;;;;20834844;28;20241;-71
2022/03/20 13:14:21;;;;;;;8.17;3.27;;;14.70;99.90;;;;;;20833433;28;20256;-71
2022/03/20 13:24:52;;;;;;;9.13;3.20;;;;;;;;;;20828781;28;20272;-72
2022/03/20 13:34:53;;;;;;;5.70;3.77;;;;;;;;;;20822314;28;20253;-71
2022/03/20 13:44:55;;;;;;;7.13;2.77;;;;;;;;;;20819684;28;20214;-68
2022/03/20 13:55:01;;;;;;;4.27;2.60;;;;;;;;;;20828985;28;20214;-69
2022/03/20 14:05:10;;;;;;;4.33;2.73;;;15.10;99.90;;;;;;20830675;28;20207;-68
2022/03/20 14:15:13;;;;;;;6.57;2.93;;;15.30;99.90;;;;;;20829034;28;20245;-70
2022/03/20 14:25:32;;;;;;;4.80;3.07;;;;;;;;;;20978257;22;20708;-66
2022/03/20 14:46:05;;;;;;;3.20;2.20;;;;;;;;;;20995264;28;20680;-65
2022/03/20 14:56:08;;;;;;;3.60;2.47;;;;;;;;;;20992172;28;20240;-66
2022/03/20 15:06:10;;;;;;;3.50;2.57;;;;;;;;;;20957952;28;20676;-64
2022/03/20 15:16:12;;;;;;;6.87;2.70;;;;;;;;;;20958017;28;20259;-65
2022/03/20 15:26:14;;;;;;;4.07;2.47;;;;;;;;;;20954504;28;20233;-65
2022/03/20 15:36:22;;;;;;;4.40;2.73;;;14.90;99.90;;;;;;20961277;28;20212;-65
2022/03/20 15:46:24;;;;;;;3.30;2.30;;;;;;;;;;20940051;28;20302;-65
2022/03/20 15:56:26;;;;;;;3.93;2.50;;;14.60;99.90;;;;;;20989264;28;20212;-65
2022/03/20 16:06:29;;;;;;;5.77;2.50;;;;;;;;;;20921932;28;20256;-64
2022/03/20 16:16:31;;;;;;;4.10;2.77;;;;;;;;;;20951125;28;20224;-65
2022/03/20 16:36:55;;;;;;;3.67;2.73;;;;;;;;;;20923777;28;20232;-65
2022/03/20 16:47:00;;;;;;;7.17;2.97;;;14.90;99.90;;;;;;20962307;28;20266;-65
2022/03/20 16:57:03;;;;;;;5.20;3.07;;;14.80;99.90;;;;;;20969664;28;20789;-65
2022/03/20 17:07:05;;;;;;;4.37;3.00;;;;;;;;;;20960137;28;20221;-65
2022/03/20 17:17:09;;;;;;;5.23;2.93;;;;;;;;;;20947524;28;20225;-65
2022/03/20 17:27:16;;;;;;;4.97;2.67;;;13.90;99.90;;;;;;20961842;28;20286;-65
2022/03/20 17:37:18;;;;;;;6.57;3.60;;;;;;;;;;20967157;28;20247;-65
2022/03/20 17:47:21;;;;;;;9.03;6.17;;;;;;;;;;20973988;28;20618;-64
2022/03/20 17:57:25;;;;;;;10.57;5.80;;;;;;;;;;20941554;28;20645;-65
2022/03/20 18:07:43;;;;;;;8.10;4.07;;;13.70;99.90;;;;;;20976501;28;20213;-65
2022/03/20 18:17:46;;;;;;;6.17;4.33;;;;;;;;;;20961945;28;20228;-65
2022/03/20 18:27:49;;;;;;;8.23;4.50;;;13.20;99.90;;;;;;20959393;28;20286;-65
2022/03/20 18:37:53;;;;;;;7.67;4.10;;;13.10;99.90;;;;;;20938276;28;20217;-64
2022/03/20 18:47:57;;;;;;;6.57;3.93;;;;;;;;;;20942117;28;20217;-64
2022/03/20 18:57:59;;;;;;;4.70;3.23;;;12.90;99.90;;;;;;20933430;28;20228;-64
2022/03/20 19:08:00;;;;;;;7.33;4.03;;;;;;;;;;20932659;28;20350;-64
2022/03/20 19:18:02;;;;;;;5.30;3.47;;;12.80;99.90;;;;;;20950234;28;20229;-65
2022/03/20 19:28:04;;;;;;;6.00;3.23;;;;;;;;;;20941242;28;20221;-65
2022/03/20 19:48:28;;;;;;;4.97;3.30;;;;;;;;;;20957323;28;20485;-65
2022/03/20 19:58:31;;;;;;;6.63;4.10;;;;;;;;;;20936760;28;20294;-65
2022/03/20 20:08:34;;;;;;;6.00;3.83;;;;;;;;;;20925746;28;20244;-65
2022/03/20 20:18:36;;;;;;;6.77;3.47;;;;;;;;;;20956167;28;20236;-64
2022/03/20 20:28:38;;;;;;;4.30;3.10;;;;;;;;;;20932966;28;20205;-64
2022/03/20 20:38:40;;;;;;;4.63;3.27;;;;;;;;;;20896082;22;20230;-70
2022/03/20 20:48:42;;;;;;;5.33;3.87;;;;;;;;;;20893325;28;20672;-72
2022/03/20 20:58:46;;;;;;;6.70;4.33;;;;;;;;;;20885748;28;20287;-72
2022/03/20 21:19:08;;;;;;;5.50;3.77;;;;;;;;;;20909057;28;20217;-70
2022/03/20 21:29:11;;;;;;;7.63;3.77;;;;;;;;;;20908668;28;20286;-70
2022/03/20 21:39:13;;;;;;;7.10;4.27;;;;;;;;;;20906360;28;20226;-73
2022/03/20 21:49:15;;;;;;;6.97;4.17;;;;;;;;;;20909364;28;20210;-70
2022/03/20 21:59:17;;;;;;;6.30;3.97;;;;;;;;;;20920612;28;20259;-69
2022/03/20 22:09:19;;;;;;;5.73;3.90;;;;;;;;;;20911453;28;20214;-70
2022/03/20 22:19:21;;;;;;;7.00;4.20;;;;;;;;;;20910104;28;20247;-71
2022/03/20 22:29:22;;;;;;;4.53;3.17;;;;;;;;;;20910561;28;20198;-69
2022/03/20 22:39:24;;;;;;;6.90;3.07;;;;;;;;;;20909092;28;20222;-70
2022/03/20 22:59:48;;;;;;;4.90;2.93;;;;;;;;;;20908968;28;20218;-70
2022/03/20 23:09:50;;;;;;;5.07;3.33;;;;;;;;;;20908525;28;20226;-70
2022/03/20 23:19:52;;;;;;;4.93;2.40;;;;;;;;;;20907532;28;20578;-71
2022/03/20 23:29:54;;;;;;;6.10;3.77;;;;;;;;;;20906776;28;20210;-69
2022/03/20 23:39:56;;;;;;;5.60;2.83;;;;;;;;;;20906248;28;20697;-70
2022/03/20 23:49:57;;;;;;;4.07;2.73;;;;;;;;;;20902759;28;20201;-70
2022/03/20 23:59:59;;;;;;;5.40;3.07;;;;;;;;;;20905608;28;20255;-70
